Terminal Aerodrome Forecast
Issued by NWS

Current Version | Previous Version | Text Only | Print | Product List | Glossary On
Versions: 1 2 3 4 5 6 7 8 9 10 11 12 13 14 15 16
000
FTUS42 TJSJ 211100
TAFIST
TAF
TIST 211137Z 2112/2212 09006KT P6SM VCSH FEW025 FEW035
     FM211500 11009KT P6SM SCT025 SCT050
     FM211800 11011KT P6SM FEW025 SCT035
     FM212100 09007KT P6SM FEW025=

USA.gov is the U.S. government's official web portal to all federal, state and local government web resources and services.